Time;durP1;ratioP1;P1;durP2;ratioP2;P2;SDS_P1;SDS_P2;PMS_P1;PMS_P2;Temp;Humidity;BMP_temperature;BMP_pressure;BME280_temperature;BME280_humidity;BME280_pressure;Samples;Min_cycle;Max_cycle;Signal;HPM_P1;HPM_P2
2023/08/25 00:01:11;;;;;;;7.97;5.15;;;;;;;;;;5033743;28;20061;-53
2023/08/25 00:03:37;;;;;;;9.68;4.85;;;;;;;;;;5030260;28;20495;-53
2023/08/25 00:06:02;;;;;;;6.20;5.50;;;;;;;;;;5030836;28;20075;-52
2023/08/25 00:08:28;;;;;;;9.27;5.30;;;;;;;;;;5028746;28;20037;-50
2023/08/25 00:10:53;;;;;;;10.85;5.22;;;;;;;;;;5037332;28;20036;-51
2023/08/25 00:13:20;;;;;;;9.43;5.05;;;;;;;;;;5035098;28;20038;-48
2023/08/25 00:15:45;;;;;;;10.50;5.50;;;;;;;;;;5031289;28;20037;-53
2023/08/25 00:18:11;;;;;;;11.10;5.25;;;;;;;;;;5032432;28;20045;-50
2023/08/25 00:20:37;;;;;;;13.55;5.70;;;;;;;;;;5032649;28;20044;-53
2023/08/25 00:23:03;;;;;;;10.05;5.55;;;;;;;;;;5019799;28;20030;-54
2023/08/25 00:25:29;;;;;;;7.60;5.05;;;;;;;;;;5030687;28;20029;-48
2023/08/25 00:27:55;;;;;;;10.65;5.03;;;;;;;;;;5036069;28;20699;-55
2023/08/25 00:30:20;;;;;;;7.28;5.47;;;;;;;;;;5025365;28;20041;-49
2023/08/25 00:32:46;;;;;;;11.07;5.72;;;;;;;;;;5029185;28;20041;-50
2023/08/25 00:35:11;;;;;;;13.25;5.78;;;;;;;;;;5035629;28;20030;-53
2023/08/25 00:37:36;;;;;;;11.00;5.78;;;;;;;;;;5032530;28;20078;-53
2023/08/25 00:40:02;;;;;;;11.63;5.88;;;;;;;;;;5028210;28;20029;-51
2023/08/25 00:42:28;;;;;;;8.25;5.72;;;;;;;;;;5020412;28;20021;-52
2023/08/25 00:44:53;;;;;;;12.13;6.00;;;;;;;;;;5026577;28;20029;-52
2023/08/25 00:47:19;;;;;;;7.53;5.72;;;;;;;;;;5035130;28;20067;-51
2023/08/25 00:49:46;;;;;;;10.35;6.22;;;;;;;;;;5031590;28;20039;-49
2023/08/25 00:52:12;;;;;;;7.90;5.68;;;;;;;;;;5029765;28;20021;-51
2023/08/25 00:54:39;;;;;;;7.55;5.65;;;;;;;;;;5033161;28;20030;-52
2023/08/25 00:57:05;;;;;;;8.48;5.88;;;;;;;;;;5030398;28;20025;-50
2023/08/25 00:59:32;;;;;;;13.48;5.95;;;;;;;;;;5025210;28;20040;-51
2023/08/25 01:01:58;;;;;;;8.80;5.93;;;;;;;;;;5032311;28;20546;-54
2023/08/25 01:04:23;;;;;;;6.55;5.45;;;;;;;;;;5029277;28;20057;-50
2023/08/25 01:06:49;;;;;;;11.43;6.18;;;;;;;;;;5027806;28;20054;-51
2023/08/25 01:09:15;;;;;;;11.75;5.82;;;;;;;;;;5029131;28;20120;-51
2023/08/25 01:12:00;;;;;;;14.00;6.07;;;;;;;;;;5037357;28;20025;-50
2023/08/25 01:14:55;;;;;;;10.88;5.50;;;;;;;;;;5038492;28;20040;-52
2023/08/25 01:17:27;;;;;;;17.00;5.90;;;;;;;;;;5024895;28;20033;-48
2023/08/25 01:19:56;;;;;;;;;;;;;;;;;;5037016;28;20057;-50
2023/08/25 01:22:35;;;;;;;10.63;5.80;;;;;;;;;;5033865;28;19916;-51
2023/08/25 01:25:13;;;;;;;8.00;6.13;;;;;;;;;;5034388;28;20041;-51
2023/08/25 01:27:39;;;;;;;11.25;5.95;;;;;;;;;;5035491;28;20044;-49
2023/08/25 01:30:05;;;;;;;7.65;5.70;;;;;;;;;;5034806;28;20037;-52
2023/08/25 01:32:30;;;;;;;10.73;5.68;;;;;;;;;;5034134;28;20028;-46
2023/08/25 01:34:56;;;;;;;6.65;5.32;;;;;;;;;;5038920;28;20068;-50
2023/08/25 01:37:29;;;;;;;11.07;6.30;;;;;;;;;;5032193;28;20036;-51
2023/08/25 01:40:04;;;;;;;12.23;6.15;;;;;;;;;;5021986;28;20111;-48
2023/08/25 01:42:32;;;;;;;7.75;6.25;;;;;;;;;;5036452;28;20116;-51
2023/08/25 01:45:00;;;;;;;9.98;5.95;;;;;;;;;;5035845;28;20364;-51
2023/08/25 01:47:28;;;;;;;9.00;5.97;;;;;;;;;;5024273;28;20053;-49
2023/08/25 01:49:56;;;;;;;10.05;6.03;;;;;;;;;;5031445;28;20084;-49
2023/08/25 01:52:21;;;;;;;9.32;6.38;;;;;;;;;;5032751;28;20064;-52
2023/08/25 01:54:50;;;;;;;13.10;6.82;;;;;;;;;;5029866;28;20042;-52
2023/08/25 01:57:15;;;;;;;10.40;5.78;;;;;;;;;;5034410;28;20025;-50
2023/08/25 01:59:41;;;;;;;6.68;5.90;;;;;;;;;;5036171;28;20499;-54
2023/08/25 02:02:06;;;;;;;8.82;6.03;;;;;;;;;;5035486;28;20025;-52
2023/08/25 02:04:31;;;;;;;7.07;5.65;;;;;;;;;;5033592;28;20048;-50
2023/08/25 02:06:57;;;;;;;7.85;5.63;;;;;;;;;;5028233;28;20119;-49
2023/08/25 02:09:23;;;;;;;7.85;6.30;;;;;;;;;;5021560;28;20121;-51
2023/08/25 02:11:49;;;;;;;8.52;6.07;;;;;;;;;;5033618;28;20064;-51
2023/08/25 02:14:14;;;;;;;8.68;6.00;;;;;;;;;;5029611;28;20042;-53
2023/08/25 02:16:40;;;;;;;9.93;5.88;;;;;;;;;;5035202;28;20021;-51
2023/08/25 02:19:05;;;;;;;8.35;5.93;;;;;;;;;;5033977;28;20041;-48
2023/08/25 02:21:31;;;;;;;6.60;5.88;;;;;;;;;;5020779;28;20083;-55
2023/08/25 02:23:56;;;;;;;6.85;6.00;;;;;;;;;;5024752;28;20033;-49
2023/08/25 02:26:21;;;;;;;9.13;6.00;;;;;;;;;;5035119;28;20048;-50
2023/08/25 02:28:47;;;;;;;6.35;5.70;;;;;;;;;;5029802;28;20061;-53
2023/08/25 02:31:12;;;;;;;12.15;6.40;;;;;;;;;;5030687;28;20021;-52
2023/08/25 02:33:38;;;;;;;11.15;6.40;;;;;;;;;;5031901;28;20103;-50
2023/08/25 02:36:03;;;;;;;12.55;6.22;;;;;;;;;;5024647;28;20109;-54
2023/08/25 02:38:29;;;;;;;8.13;6.15;;;;;;;;;;5033789;28;20050;-48
2023/08/25 02:40:54;;;;;;;7.55;5.88;;;;;;;;;;5023857;28;20030;-52
2023/08/25 02:43:19;;;;;;;11.80;6.20;;;;;;;;;;5032844;28;20046;-50
2023/08/25 02:45:45;;;;;;;14.93;5.53;;;;;;;;;;5031545;28;20059;-51
2023/08/25 02:48:10;;;;;;;6.65;5.80;;;;;;;;;;5033335;28;20033;-51
2023/08/25 02:50:36;;;;;;;7.70;6.90;;;;;;;;;;5035179;28;20028;-52
2023/08/25 02:53:01;;;;;;;7.53;6.68;;;;;;;;;;5034073;28;20059;-50
2023/08/25 02:55:26;;;;;;;9.65;6.05;;;;;;;;;;5031920;28;20025;-52
2023/08/25 02:57:52;;;;;;;7.47;6.60;;;;;;;;;;5027823;28;20046;-52
2023/08/25 03:00:20;;;;;;;7.35;5.72;;;;;;;;;;5033950;28;20033;-53
2023/08/25 03:02:47;;;;;;;8.70;6.00;;;;;;;;;;5022146;28;20491;-54
2023/08/25 03:05:12;;;;;;;8.57;5.90;;;;;;;;;;5029337;28;20026;-51
2023/08/25 03:07:37;;;;;;;9.65;6.00;;;;;;;;;;5038610;28;20056;-52
2023/08/25 03:10:03;;;;;;;11.07;5.53;;;;;;;;;;5035939;28;20033;-53
2023/08/25 03:12:28;;;;;;;6.63;5.95;;;;;;;;;;5028723;28;20060;-52
2023/08/25 03:14:54;;;;;;;7.35;5.78;;;;;;;;;;5032636;28;20510;-50
2023/08/25 03:17:21;;;;;;;6.80;6.20;;;;;;;;;;5035463;28;20034;-51
2023/08/25 03:19:46;;;;;;;10.95;6.32;;;;;;;;;;5024939;28;20049;-51
2023/08/25 03:22:12;;;;;;;8.88;5.95;;;;;;;;;;5028772;28;20132;-50
2023/08/25 03:24:37;;;;;;;11.25;6.20;;;;;;;;;;5031282;28;20432;-53
2023/08/25 03:27:03;;;;;;;12.95;6.45;;;;;;;;;;5027782;28;20503;-52
2023/08/25 03:29:28;;;;;;;9.52;6.05;;;;;;;;;;5021252;28;20044;-52
2023/08/25 03:31:54;;;;;;;10.95;6.30;;;;;;;;;;5034238;28;20040;-49
2023/08/25 03:34:19;;;;;;;7.05;6.30;;;;;;;;;;5033093;28;20754;-50
2023/08/25 03:36:46;;;;;;;7.45;6.10;;;;;;;;;;5033213;28;20128;-52
2023/08/25 03:39:12;;;;;;;6.35;5.80;;;;;;;;;;5026126;28;20037;-50
2023/08/25 03:41:38;;;;;;;8.65;6.50;;;;;;;;;;5030870;28;20057;-52
2023/08/25 03:44:03;;;;;;;9.32;6.35;;;;;;;;;;5033953;28;20052;-50
2023/08/25 03:46:29;;;;;;;11.40;6.03;;;;;;;;;;5037362;28;20434;-52
2023/08/25 03:48:54;;;;;;;11.10;6.25;;;;;;;;;;5025101;28;20037;-50
2023/08/25 03:51:20;;;;;;;10.75;5.93;;;;;;;;;;5030288;28;20025;-52
2023/08/25 03:53:45;;;;;;;8.80;6.32;;;;;;;;;;5030557;28;20114;-50
2023/08/25 03:56:11;;;;;;;7.95;6.32;;;;;;;;;;5036291;28;20022;-54
2023/08/25 03:58:36;;;;;;;12.23;6.18;;;;;;;;;;5030797;28;20097;-49
2023/08/25 04:01:03;;;;;;;6.68;5.65;;;;;;;;;;5031126;28;20113;-50
2023/08/25 04:03:28;;;;;;;7.30;5.95;;;;;;;;;;5025048;28;20044;-49
2023/08/25 04:05:53;;;;;;;11.52;6.13;;;;;;;;;;5024678;28;20057;-53
2023/08/25 04:08:19;;;;;;;11.13;6.60;;;;;;;;;;5024872;28;20109;-49
2023/08/25 04:10:46;;;;;;;9.57;6.40;;;;;;;;;;5034144;28;20029;-50
2023/08/25 04:13:12;;;;;;;8.00;6.07;;;;;;;;;;5033628;28;20518;-51
2023/08/25 04:15:37;;;;;;;12.43;6.35;;;;;;;;;;5035748;28;20029;-51
2023/08/25 04:18:03;;;;;;;8.50;6.68;;;;;;;;;;5033262;28;20047;-50
2023/08/25 04:20:28;;;;;;;12.75;6.30;;;;;;;;;;5032821;28;20430;-51
2023/08/25 04:22:54;;;;;;;9.15;6.22;;;;;;;;;;5030087;28;20068;-51
2023/08/25 04:25:19;;;;;;;9.65;6.25;;;;;;;;;;5028342;28;20499;-48
2023/08/25 04:27:45;;;;;;;11.02;6.15;;;;;;;;;;5030620;28;20061;-52
2023/08/25 04:30:11;;;;;;;7.50;6.13;;;;;;;;;;5030458;28;20062;-52
2023/08/25 04:32:36;;;;;;;13.15;6.55;;;;;;;;;;5026384;28;20558;-48
2023/08/25 04:35:03;;;;;;;9.48;6.07;;;;;;;;;;5030064;28;20119;-51
2023/08/25 04:37:28;;;;;;;8.38;6.53;;;;;;;;;;5033622;28;20087;-51
2023/08/25 04:39:55;;;;;;;11.43;6.55;;;;;;;;;;5030189;28;20025;-54
2023/08/25 04:42:23;;;;;;;8.57;6.55;;;;;;;;;;5027467;28;20429;-51
2023/08/25 04:44:49;;;;;;;10.73;7.00;;;;;;;;;;5025129;28;20045;-48
2023/08/25 04:47:16;;;;;;;10.40;6.47;;;;;;;;;;5030816;28;20033;-52
2023/08/25 04:49:43;;;;;;;12.57;6.82;;;;;;;;;;5032504;28;20037;-50
2023/08/25 04:52:08;;;;;;;11.57;6.60;;;;;;;;;;5036480;28;20032;-51
2023/08/25 04:54:34;;;;;;;11.13;6.22;;;;;;;;;;5033115;28;20049;-51
2023/08/25 04:56:59;;;;;;;8.90;6.65;;;;;;;;;;5038074;28;20545;-53
2023/08/25 04:59:25;;;;;;;7.03;6.40;;;;;;;;;;5033110;28;20041;-48
2023/08/25 05:01:50;;;;;;;7.22;6.55;;;;;;;;;;5024894;28;20021;-48
2023/08/25 05:04:16;;;;;;;7.13;6.43;;;;;;;;;;5035597;28;20045;-52
2023/08/25 05:06:41;;;;;;;12.77;6.40;;;;;;;;;;5035626;28;20029;-54
2023/08/25 05:09:06;;;;;;;7.13;5.80;;;;;;;;;;5035372;28;20030;-52
2023/08/25 05:11:34;;;;;;;13.43;7.05;;;;;;;;;;5034540;28;20029;-52
2023/08/25 05:13:59;;;;;;;8.43;6.10;;;;;;;;;;5037671;28;20061;-53
2023/08/25 05:16:25;;;;;;;11.38;6.72;;;;;;;;;;5034008;28;20537;-54
2023/08/25 05:18:50;;;;;;;9.73;6.53;;;;;;;;;;5036012;28;20073;-53
2023/08/25 05:21:15;;;;;;;8.27;6.25;;;;;;;;;;5026868;28;20117;-54
2023/08/25 05:23:46;;;;;;;10.57;6.30;;;;;;;;;;5027752;28;20579;-53
2023/08/25 05:26:13;;;;;;;11.45;6.18;;;;;;;;;;5025626;28;20050;-54
2023/08/25 05:28:38;;;;;;;10.38;6.10;;;;;;;;;;5032381;28;20534;-50
2023/08/25 05:31:03;;;;;;;12.23;7.07;;;;;;;;;;5032151;28;20029;-51
2023/08/25 05:33:29;;;;;;;7.47;6.40;;;;;;;;;;5038960;28;20044;-53
2023/08/25 05:35:54;;;;;;;8.40;5.93;;;;;;;;;;5035827;28;20033;-52
2023/08/25 05:38:20;;;;;;;13.40;6.43;;;;;;;;;;5037237;28;20125;-51
2023/08/25 05:40:45;;;;;;;13.48;6.40;;;;;;;;;;5037863;28;20163;-50
2023/08/25 05:43:10;;;;;;;10.40;5.93;;;;;;;;;;5026791;28;20048;-53
2023/08/25 05:45:36;;;;;;;7.70;6.45;;;;;;;;;;5035985;28;20108;-52
2023/08/25 05:48:01;;;;;;;10.07;6.28;;;;;;;;;;5031949;28;20034;-55
2023/08/25 05:50:26;;;;;;;9.68;6.10;;;;;;;;;;5033905;28;20498;-53
2023/08/25 05:52:53;;;;;;;11.15;6.65;;;;;;;;;;5032656;28;20586;-53
2023/08/25 05:55:19;;;;;;;7.22;5.82;;;;;;;;;;5030198;28;20022;-52
2023/08/25 05:57:44;;;;;;;12.90;6.75;;;;;;;;;;5033032;28;20033;-54
2023/08/25 06:00:10;;;;;;;11.70;6.35;;;;;;;;;;5027957;28;20094;-53
2023/08/25 06:02:36;;;;;;;6.65;5.82;;;;;;;;;;5034540;28;20061;-52
2023/08/25 06:05:01;;;;;;;7.60;5.07;;;;;;;;;;5040626;28;20067;-50
2023/08/25 06:07:27;;;;;;;5.70;5.07;;;;;;;;;;5025931;28;20099;-54
2023/08/25 06:09:52;;;;;;;8.70;6.07;;;;;;;;;;5030789;28;20032;-54
2023/08/25 06:12:17;;;;;;;13.88;5.70;;;;;;;;;;5034061;28;20394;-52
2023/08/25 06:14:43;;;;;;;14.57;5.53;;;;;;;;;;5034134;28;20037;-53
2023/08/25 06:17:08;;;;;;;13.13;5.68;;;;;;;;;;5029041;28;20033;-49
2023/08/25 06:19:36;;;;;;;9.75;5.93;;;;;;;;;;5028179;28;20041;-53
2023/08/25 06:22:01;;;;;;;15.15;5.50;;;;;;;;;;5027090;28;20108;-53
2023/08/25 06:24:27;;;;;;;12.75;6.20;;;;;;;;;;5029296;28;20052;-55
2023/08/25 06:26:53;;;;;;;5.95;5.13;;;;;;;;;;5023778;28;20141;-54
2023/08/25 06:29:19;;;;;;;9.98;6.05;;;;;;;;;;5027439;28;20034;-52
2023/08/25 06:31:45;;;;;;;15.43;5.93;;;;;;;;;;5034486;28;20364;-53
2023/08/25 06:34:10;;;;;;;9.73;5.63;;;;;;;;;;5028423;28;20041;-56
2023/08/25 06:36:35;;;;;;;8.95;5.57;;;;;;;;;;5037595;28;20112;-52
2023/08/25 06:39:01;;;;;;;8.13;6.03;;;;;;;;;;5033119;28;20097;-52
2023/08/25 06:41:26;;;;;;;14.10;6.15;;;;;;;;;;5022859;28;20026;-55
2023/08/25 06:43:53;;;;;;;8.80;5.13;;;;;;;;;;5031443;28;20037;-53
2023/08/25 06:46:18;;;;;;;16.45;5.80;;;;;;;;;;5022426;28;20042;-55
2023/08/25 06:48:44;;;;;;;9.10;5.97;;;;;;;;;;5024763;28;20030;-56
2023/08/25 06:51:09;;;;;;;12.57;6.20;;;;;;;;;;5033981;28;20508;-53
2023/08/25 06:53:35;;;;;;;12.35;5.43;;;;;;;;;;5025925;28;20045;-55
2023/08/25 06:56:02;;;;;;;9.05;5.90;;;;;;;;;;5022410;28;20108;-54
2023/08/25 06:58:28;;;;;;;10.85;5.03;;;;;;;;;;5032814;28;20121;-52
2023/08/25 07:00:53;;;;;;;8.60;5.88;;;;;;;;;;5024906;28;20057;-54
2023/08/25 07:03:19;;;;;;;9.23;5.90;;;;;;;;;;5022410;28;20518;-52
2023/08/25 07:05:44;;;;;;;6.50;5.88;;;;;;;;;;5000329;28;20034;-55
2023/08/25 07:08:10;;;;;;;17.75;5.78;;;;;;;;;;5012289;28;20042;-56
2023/08/25 07:10:36;;;;;;;7.68;5.28;;;;;;;;;;5009638;28;20026;-53
2023/08/25 07:13:01;;;;;;;12.65;5.38;;;;;;;;;;5009387;28;20042;-56
2023/08/25 07:15:27;;;;;;;6.70;5.60;;;;;;;;;;5016555;28;20072;-54
2023/08/25 07:17:52;;;;;;;9.15;5.50;;;;;;;;;;5017921;28;20053;-54
2023/08/25 07:20:18;;;;;;;8.80;5.22;;;;;;;;;;5020539;28;20405;-56
2023/08/25 07:22:43;;;;;;;10.07;5.57;;;;;;;;;;5016045;28;20030;-56
2023/08/25 07:25:09;;;;;;;13.13;5.22;;;;;;;;;;5005983;28;20109;-56
2023/08/25 07:27:34;;;;;;;7.93;4.72;;;;;;;;;;5011436;28;20516;-55
2023/08/25 07:30:00;;;;;;;5.93;4.90;;;;;;;;;;5006405;28;20096;-55
2023/08/25 07:32:26;;;;;;;7.05;4.80;;;;;;;;;;5013774;28;20030;-48
2023/08/25 07:34:51;;;;;;;7.72;4.72;;;;;;;;;;5025137;28;20029;-54
2023/08/25 07:37:17;;;;;;;8.95;4.70;;;;;;;;;;5014910;28;20033;-55
2023/08/25 07:39:42;;;;;;;8.93;4.57;;;;;;;;;;5034458;28;20040;-53
2023/08/25 07:42:08;;;;;;;6.40;4.70;;;;;;;;;;5032364;28;20076;-55
2023/08/25 07:44:36;;;;;;;14.63;4.75;;;;;;;;;;5034625;28;20042;-54
2023/08/25 07:47:01;;;;;;;11.15;5.07;;;;;;;;;;5034295;28;20025;-53
2023/08/25 07:49:26;;;;;;;16.95;5.50;;;;;;;;;;5034197;28;20059;-50
2023/08/25 07:51:52;;;;;;;8.52;4.50;;;;;;;;;;5030433;28;20038;-49
2023/08/25 07:54:17;;;;;;;12.05;4.70;;;;;;;;;;5042468;28;20037;-54
2023/08/25 07:56:43;;;;;;;6.30;4.40;;;;;;;;;;5038784;28;20108;-55
2023/08/25 07:59:08;;;;;;;8.60;3.83;;;;;;;;;;5035978;28;20037;-53
2023/08/25 08:01:34;;;;;;;10.75;4.05;;;;;;;;;;5025221;28;20499;-55
2023/08/25 08:03:59;;;;;;;8.63;3.80;;;;;;;;;;5035408;28;20042;-57
2023/08/25 08:06:25;;;;;;;9.82;4.30;;;;;;;;;;5034666;28;20029;-55
2023/08/25 08:08:50;;;;;;;6.55;3.83;;;;;;;;;;5024343;28;20060;-53
2023/08/25 08:11:15;;;;;;;11.95;4.50;;;;;;;;;;5024781;28;20029;-55
2023/08/25 08:13:41;;;;;;;12.68;4.03;;;;;;;;;;5034254;28;20673;-53
2023/08/25 08:16:06;;;;;;;4.65;3.60;;;;;;;;;;5035380;28;20030;-54
2023/08/25 08:18:32;;;;;;;10.35;3.88;;;;;;;;;;5031827;28;20514;-52
2023/08/25 08:20:57;;;;;;;11.55;3.85;;;;;;;;;;5030173;28;20160;-53
2023/08/25 08:23:23;;;;;;;16.55;4.13;;;;;;;;;;5022092;28;20048;-54
2023/08/25 08:25:49;;;;;;;7.53;4.15;;;;;;;;;;5021762;28;20037;-54
2023/08/25 08:28:15;;;;;;;8.73;4.65;;;;;;;;;;5027729;28;20045;-52
2023/08/25 08:30:43;;;;;;;19.30;4.30;;;;;;;;;;5024585;28;20053;-53
2023/08/25 08:33:09;;;;;;;14.00;3.75;;;;;;;;;;5027632;28;20447;-54
2023/08/25 08:35:35;;;;;;;5.68;4.20;;;;;;;;;;5026574;28;20032;-53
2023/08/25 08:38:01;;;;;;;7.88;4.32;;;;;;;;;;5025565;28;20041;-52
2023/08/25 08:40:31;;;;;;;6.70;3.95;;;;;;;;;;5027678;28;20108;-51
2023/08/25 08:43:03;;;;;;;8.52;4.60;;;;;;;;;;5022260;28;20124;-53
2023/08/25 08:45:34;;;;;;;9.57;4.38;;;;;;;;;;5026151;28;20041;-55
2023/08/25 08:48:05;;;;;;;4.85;4.32;;;;;;;;;;5023500;28;20095;-52
2023/08/25 08:50:34;;;;;;;6.53;4.18;;;;;;;;;;5023226;28;20088;-54
2023/08/25 08:53:01;;;;;;;7.45;4.43;;;;;;;;;;5031656;28;20044;-53
2023/08/25 08:55:27;;;;;;;7.30;4.25;;;;;;;;;;5023338;28;20041;-54
2023/08/25 08:57:52;;;;;;;8.45;4.15;;;;;;;;;;5025161;28;20411;-53
2023/08/25 09:00:18;;;;;;;8.85;4.25;;;;;;;;;;5020953;28;20030;-53
2023/08/25 09:02:53;;;;;;;8.02;3.97;;;;;;;;;;5020897;28;20017;-53
2023/08/25 09:05:27;;;;;;;7.50;4.60;;;;;;;;;;5027731;28;20072;-55
2023/08/25 09:07:57;;;;;;;4.95;4.35;;;;;;;;;;5029034;28;20072;-53
2023/08/25 09:10:27;;;;;;;9.10;4.47;;;;;;;;;;5033305;28;20029;-53
2023/08/25 09:12:52;;;;;;;6.07;4.05;;;;;;;;;;5033495;28;20034;-54
2023/08/25 09:15:29;;;;;;;13.55;5.10;;;;;;;;;;5027949;28;20541;-54
2023/08/25 09:18:05;;;;;;;7.35;4.25;;;;;;;;;;5026312;28;20052;-51
2023/08/25 09:20:33;;;;;;;8.73;4.65;;;;;;;;;;5031929;28;20057;-52
2023/08/25 09:22:59;;;;;;;9.48;4.60;;;;;;;;;;5034173;28;20057;-50
2023/08/25 09:25:25;;;;;;;6.55;4.15;;;;;;;;;;5024778;28;20057;-54
2023/08/25 09:27:57;;;;;;;8.73;4.20;;;;;;;;;;5032423;28;20108;-53
2023/08/25 09:30:42;;;;;;;6.28;4.15;;;;;;;;;;5034703;28;20033;-51
2023/08/25 09:33:11;;;;;;;7.53;4.13;;;;;;;;;;5037761;28;20437;-55
2023/08/25 09:35:37;;;;;;;8.90;3.97;;;;;;;;;;5036277;28;20416;-54
2023/08/25 09:38:03;;;;;;;7.07;4.32;;;;;;;;;;5034571;28;20152;-51
2023/08/25 09:40:29;;;;;;;6.68;4.00;;;;;;;;;;5037905;28;20044;-54
2023/08/25 09:43:00;;;;;;;4.35;3.95;;;;;;;;;;5036234;28;20045;-54
2023/08/25 09:45:30;;;;;;;6.75;4.15;;;;;;;;;;5033353;28;20068;-55
2023/08/25 09:48:10;;;;;;;10.75;4.10;;;;;;;;;;5036958;28;20459;-55
2023/08/25 09:50:45;;;;;;;8.00;4.13;;;;;;;;;;5036838;28;20029;-55
2023/08/25 09:53:12;;;;;;;7.93;4.10;;;;;;;;;;5034408;28;20133;-53
2023/08/25 09:55:39;;;;;;;7.00;4.28;;;;;;;;;;5029236;28;20033;-52
2023/08/25 09:58:06;;;;;;;4.63;3.97;;;;;;;;;;5032008;28;20253;-55
2023/08/25 10:00:34;;;;;;;8.43;3.97;;;;;;;;;;5029680;28;20708;-51
2023/08/25 10:03:01;;;;;;;17.38;4.32;;;;;;;;;;5021729;28;20044;-55
2023/08/25 10:05:27;;;;;;;12.38;4.15;;;;;;;;;;5031606;28;20032;-54
2023/08/25 10:07:53;;;;;;;5.38;3.72;;;;;;;;;;5031495;28;20057;-54
2023/08/25 10:10:20;;;;;;;6.30;3.90;;;;;;;;;;5016735;28;20026;-53
2023/08/25 10:12:46;;;;;;;9.52;3.90;;;;;;;;;;5036111;28;20041;-53
2023/08/25 10:15:13;;;;;;;12.73;4.22;;;;;;;;;;5035962;28;20025;-55
2023/08/25 10:17:40;;;;;;;6.97;3.83;;;;;;;;;;5033841;28;20482;-54
2023/08/25 10:20:08;;;;;;;5.82;4.20;;;;;;;;;;5037864;28;20060;-56
2023/08/25 10:22:35;;;;;;;10.48;4.55;;;;;;;;;;5034999;28;20029;-54
2023/08/25 10:25:02;;;;;;;8.63;4.50;;;;;;;;;;5027555;28;20446;-55
2023/08/25 10:27:28;;;;;;;8.13;4.25;;;;;;;;;;5035610;28;20053;-56
2023/08/25 10:29:56;;;;;;;9.00;4.65;;;;;;;;;;5036508;28;20037;-56
2023/08/25 10:32:21;;;;;;;8.75;4.03;;;;;;;;;;5037292;28;20017;-53
2023/08/25 10:34:52;;;;;;;10.63;4.25;;;;;;;;;;5034454;28;20049;-54
2023/08/25 10:37:25;;;;;;;;;;;;;;;;;;5030214;28;20033;-54
2023/08/25 10:39:53;;;;;;;5.10;4.03;;;;;;;;;;5025183;28;19922;-53
2023/08/25 10:42:28;;;;;;;9.07;4.40;;;;;;;;;;5036440;28;20357;-55
2023/08/25 10:44:55;;;;;;;9.57;4.30;;;;;;;;;;5024097;28;20135;-54
2023/08/25 10:47:22;;;;;;;8.50;4.18;;;;;;;;;;5037959;28;20022;-52
2023/08/25 10:49:59;;;;;;;8.45;4.50;;;;;;;;;;5031999;28;20505;-57
2023/08/25 10:52:24;;;;;;;7.95;4.30;;;;;;;;;;5024894;28;20021;-57
2023/08/25 10:54:54;;;;;;;6.30;4.50;;;;;;;;;;5031891;28;20121;-54
2023/08/25 10:57:26;;;;;;;6.43;4.10;;;;;;;;;;5030423;28;20033;-54
2023/08/25 10:59:55;;;;;;;9.02;4.35;;;;;;;;;;5029985;28;20109;-55
2023/08/25 11:02:37;;;;;;;11.18;4.40;;;;;;;;;;5029374;28;20025;-53
2023/08/25 11:05:31;;;;;;;10.80;4.15;;;;;;;;;;5013252;28;20128;-54
2023/08/25 11:08:00;;;;;;;7.03;4.47;;;;;;;;;;5014051;28;20040;-52
2023/08/25 11:10:29;;;;;;;5.03;4.18;;;;;;;;;;5030623;28;20040;-55
2023/08/25 11:12:54;;;;;;;6.40;4.18;;;;;;;;;;5032981;28;20096;-57
2023/08/25 11:15:23;;;;;;;7.65;4.45;;;;;;;;;;5033503;28;20029;-56
2023/08/25 11:17:49;;;;;;;7.00;4.28;;;;;;;;;;5031023;28;20061;-56
2023/08/25 11:20:17;;;;;;;6.43;4.40;;;;;;;;;;5031309;28;20400;-56
2023/08/25 11:22:53;;;;;;;4.80;4.07;;;;;;;;;;5029029;28;20025;-56
2023/08/25 11:25:19;;;;;;;7.70;4.72;;;;;;;;;;5034216;28;20060;-56
2023/08/25 11:27:51;;;;;;;7.35;4.72;;;;;;;;;;5033396;28;20038;-56
2023/08/25 11:30:18;;;;;;;5.45;4.35;;;;;;;;;;5032449;28;20025;-57
2023/08/25 11:32:50;;;;;;;7.28;4.35;;;;;;;;;;5036111;28;20033;-54
2023/08/25 11:35:16;;;;;;;9.00;4.45;;;;;;;;;;5035114;28;20025;-56
2023/08/25 11:37:44;;;;;;;9.45;4.55;;;;;;;;;;5031598;28;20047;-57
2023/08/25 11:40:13;;;;;;;9.95;4.65;;;;;;;;;;5034870;28;20033;-55
2023/08/25 11:42:40;;;;;;;7.05;4.20;;;;;;;;;;5040021;28;20033;-53
2023/08/25 11:45:10;;;;;;;8.18;4.40;;;;;;;;;;5030009;28;20079;-52
2023/08/25 11:47:38;;;;;;;5.78;4.18;;;;;;;;;;5035784;28;20026;-54
2023/08/25 11:50:04;;;;;;;5.97;4.20;;;;;;;;;;5028535;28;20021;-54
2023/08/25 11:52:32;;;;;;;7.65;4.18;;;;;;;;;;5035698;28;20033;-57
2023/08/25 11:54:57;;;;;;;8.75;3.92;;;;;;;;;;5030466;28;20056;-55
2023/08/25 11:57:34;;;;;;;12.88;4.10;;;;;;;;;;5035526;28;20029;-54
2023/08/25 12:00:03;;;;;;;5.53;3.90;;;;;;;;;;5031294;28;20325;-55
2023/08/25 12:02:28;;;;;;;9.60;4.32;;;;;;;;;;5035745;28;20014;-55
2023/08/25 12:04:55;;;;;;;5.38;3.78;;;;;;;;;;5031591;28;20033;-57
2023/08/25 12:07:26;;;;;;;8.32;3.42;;;;;;;;;;5037013;28;20033;-54
2023/08/25 12:09:56;;;;;;;7.90;3.70;;;;;;;;;;5025554;28;20044;-55
2023/08/25 12:12:22;;;;;;;4.72;3.58;;;;;;;;;;5026907;28;20541;-57
2023/08/25 12:14:52;;;;;;;4.57;3.13;;;;;;;;;;5036243;28;20041;-55
2023/08/25 12:17:24;;;;;;;6.45;3.33;;;;;;;;;;5029651;28;20601;-54
2023/08/25 12:19:50;;;;;;;7.70;3.97;;;;;;;;;;5034082;28;20407;-52
2023/08/25 12:22:16;;;;;;;10.50;3.53;;;;;;;;;;5037678;28;20136;-54
2023/08/25 12:24:42;;;;;;;3.55;3.25;;;;;;;;;;5034814;28;20034;-52
2023/08/25 12:27:07;;;;;;;5.30;3.67;;;;;;;;;;5032460;28;20081;-52
2023/08/25 12:29:33;;;;;;;6.95;3.60;;;;;;;;;;5027946;28;20045;-52
2023/08/25 12:31:58;;;;;;;8.10;3.67;;;;;;;;;;5030084;28;20040;-53
2023/08/25 12:34:23;;;;;;;5.03;3.40;;;;;;;;;;5032393;28;20037;-54
2023/08/25 12:36:49;;;;;;;6.90;3.78;;;;;;;;;;5035604;28;20033;-50
2023/08/25 12:39:15;;;;;;;7.13;3.40;;;;;;;;;;5034046;28;20522;-57
2023/08/25 12:41:40;;;;;;;6.45;3.63;;;;;;;;;;5032708;28;20435;-52
2023/08/25 12:44:06;;;;;;;9.38;3.92;;;;;;;;;;5035877;28;20120;-57
2023/08/25 12:46:32;;;;;;;4.25;3.58;;;;;;;;;;5031356;28;20460;-52
2023/08/25 12:48:57;;;;;;;6.18;3.63;;;;;;;;;;5027223;28;20487;-52
2023/08/25 12:51:23;;;;;;;8.93;4.25;;;;;;;;;;5032938;28;20032;-55
2023/08/25 12:53:50;;;;;;;7.93;4.00;;;;;;;;;;5032210;28;20049;-54
2023/08/25 12:56:15;;;;;;;4.60;4.00;;;;;;;;;;5033009;28;20036;-53
2023/08/25 12:58:41;;;;;;;7.97;4.20;;;;;;;;;;5036854;28;20383;-50
2023/08/25 13:01:08;;;;;;;6.30;3.90;;;;;;;;;;5033400;28;20033;-54
2023/08/25 13:03:34;;;;;;;7.50;3.67;;;;;;;;;;5017818;28;20049;-54
2023/08/25 13:05:59;;;;;;;8.85;3.80;;;;;;;;;;5006716;28;20022;-56
2023/08/25 13:08:25;;;;;;;7.57;3.58;;;;;;;;;;5007145;28;20066;-53
2023/08/25 13:10:51;;;;;;;6.13;4.20;;;;;;;;;;5018444;28;20484;-55
2023/08/25 13:13:17;;;;;;;9.45;4.05;;;;;;;;;;5010500;28;21363;-52
2023/08/25 13:15:42;;;;;;;8.48;4.20;;;;;;;;;;5015667;28;20080;-53
2023/08/25 13:18:08;;;;;;;7.03;4.18;;;;;;;;;;5011006;28;20046;-54
2023/08/25 13:20:33;;;;;;;6.80;3.63;;;;;;;;;;5009899;28;20033;-56
2023/08/25 13:23:00;;;;;;;7.15;4.25;;;;;;;;;;5011335;28;20121;-54
2023/08/25 13:25:25;;;;;;;4.68;4.05;;;;;;;;;;5018041;28;20048;-52
2023/08/25 13:27:50;;;;;;;12.48;4.18;;;;;;;;;;5015088;28;20408;-56
2023/08/25 13:30:16;;;;;;;5.25;3.97;;;;;;;;;;5014928;28;20117;-54
2023/08/25 13:32:42;;;;;;;5.82;4.15;;;;;;;;;;5015044;28;20369;-53
2023/08/25 13:35:08;;;;;;;10.80;4.20;;;;;;;;;;5011125;28;20030;-53
2023/08/25 13:37:34;;;;;;;6.05;4.35;;;;;;;;;;5017014;28;20506;-54
2023/08/25 13:40:00;;;;;;;5.57;4.30;;;;;;;;;;5012086;28;20037;-55
2023/08/25 13:42:25;;;;;;;7.10;4.25;;;;;;;;;;5014297;28;20446;-55
2023/08/25 13:44:51;;;;;;;9.43;4.30;;;;;;;;;;5034595;28;20163;-54
2023/08/25 13:47:16;;;;;;;9.90;4.65;;;;;;;;;;5042544;28;20032;-54
2023/08/25 13:49:42;;;;;;;13.25;4.88;;;;;;;;;;5035769;28;20117;-50
2023/08/25 13:52:08;;;;;;;10.25;4.45;;;;;;;;;;5035954;28;20025;-54
2023/08/25 13:54:33;;;;;;;8.38;4.53;;;;;;;;;;5035807;28;20041;-52
2023/08/25 13:56:59;;;;;;;16.73;4.80;;;;;;;;;;5032215;28;20055;-54
2023/08/25 13:59:24;;;;;;;7.55;4.10;;;;;;;;;;5034705;28;20087;-54
2023/08/25 14:01:50;;;;;;;11.25;4.50;;;;;;;;;;5036569;28;20030;-55
2023/08/25 14:04:16;;;;;;;6.65;4.40;;;;;;;;;;5034026;28;20392;-54
2023/08/25 14:06:43;;;;;;;7.18;4.55;;;;;;;;;;5036325;28;20041;-55
2023/08/25 14:09:08;;;;;;;8.07;4.80;;;;;;;;;;5018593;28;20057;-54
2023/08/25 14:11:34;;;;;;;6.85;4.50;;;;;;;;;;5018018;28;20026;-53
2023/08/25 14:14:00;;;;;;;5.43;4.68;;;;;;;;;;5013282;28;20042;-53
2023/08/25 14:16:25;;;;;;;8.90;4.80;;;;;;;;;;5011533;28;20056;-52
2023/08/25 14:18:51;;;;;;;18.40;5.43;;;;;;;;;;5008299;28;20096;-54
2023/08/25 14:21:16;;;;;;;12.90;4.80;;;;;;;;;;5010035;28;20034;-52
2023/08/25 14:23:42;;;;;;;8.27;5.00;;;;;;;;;;5016376;28;20042;-55
2023/08/25 14:26:07;;;;;;;8.07;4.90;;;;;;;;;;5015897;28;20026;-55
2023/08/25 14:28:33;;;;;;;7.82;5.75;;;;;;;;;;5013360;28;20039;-51
2023/08/25 14:30:59;;;;;;;6.82;4.90;;;;;;;;;;5012133;28;20061;-53
2023/08/25 14:33:24;;;;;;;8.05;4.53;;;;;;;;;;5011389;28;20038;-52
2023/08/25 14:35:49;;;;;;;6.63;4.88;;;;;;;;;;5019612;28;20026;-53